sensor_id;sensor_type;location;lat;lon;timestamp;pressure;altitude;pressure_sealevel;temperature;humidity
66945;BME280;53853;51.982;5.928;2023-04-01T00:01:14;98978.94;;;11.44;82.36
66945;BME280;53853;51.982;5.928;2023-04-01T00:03:44;98982.41;;;11.44;82.38
66945;BME280;53853;51.982;5.928;2023-04-01T00:06:16;98978.09;;;11.43;82.39
66945;BME280;53853;51.982;5.928;2023-04-01T00:08:47;98984.66;;;11.40;82.69
66945;BME280;53853;51.982;5.928;2023-04-01T00:11:17;98984.66;;;11.40;82.73
66945;BME280;53853;51.982;5.928;2023-04-01T00:13:50;98983.63;;;11.41;82.82
66945;BME280;53853;51.982;5.928;2023-04-01T00:16:20;98987.13;;;11.42;82.73
66945;BME280;53853;51.982;5.928;2023-04-01T00:18:51;98990.41;;;11.44;83.04
66945;BME280;53853;51.982;5.928;2023-04-01T00:21:21;98993.47;;;11.41;82.87
66945;BME280;53853;51.982;5.928;2023-04-01T00:23:52;98989.16;;;11.40;82.92
66945;BME280;53853;51.982;5.928;2023-04-01T00:26:22;98990.41;;;11.37;83.10
66945;BME280;53853;51.982;5.928;2023-04-01T00:28:56;98989.97;;;11.34;83.12
66945;BME280;53853;51.982;5.928;2023-04-01T00:31:26;98985.47;;;11.34;83.09
66945;BME280;53853;51.982;5.928;2023-04-01T00:33:56;98981.16;;;11.33;83.61
66945;BME280;53853;51.982;5.928;2023-04-01T00:36:26;98988.34;;;11.33;83.42
66945;BME280;53853;51.982;5.928;2023-04-01T00:38:58;98986.69;;;11.32;83.49
66945;BME280;53853;51.982;5.928;2023-04-01T00:41:28;98984.63;;;11.34;83.73
66945;BME280;53853;51.982;5.928;2023-04-01T00:44:18;98988.13;;;11.34;83.73
66945;BME280;53853;51.982;5.928;2023-04-01T00:46:48;98986.69;;;11.32;83.63
66945;BME280;53853;51.982;5.928;2023-04-01T00:49:21;98995.28;;;11.34;83.73
66945;BME280;53853;51.982;5.928;2023-04-01T00:51:54;98996.13;;;11.34;83.55
66945;BME280;53853;51.982;5.928;2023-04-01T00:54:26;98993.66;;;11.33;83.43
66945;BME280;53853;51.982;5.928;2023-04-01T00:56:59;98997.34;;;11.32;83.38
66945;BME280;53853;51.982;5.928;2023-04-01T00:59:35;99001.03;;;11.31;83.56
66945;BME280;53853;51.982;5.928;2023-04-01T01:02:08;98996.72;;;11.30;83.45
66945;BME280;53853;51.982;5.928;2023-04-01T01:04:39;99002.47;;;11.33;83.56
66945;BME280;53853;51.982;5.928;2023-04-01T01:07:17;99006.59;;;11.36;83.51
66945;BME280;53853;51.982;5.928;2023-04-01T01:09:56;98998.22;;;11.39;83.49
66945;BME280;53853;51.982;5.928;2023-04-01T01:12:34;98998.81;;;11.41;83.40
66945;BME280;53853;51.982;5.928;2023-04-01T01:15:15;98996.75;;;11.43;83.44
66945;BME280;53853;51.982;5.928;2023-04-01T01:17:57;99001.69;;;11.46;83.40
66945;BME280;53853;51.982;5.928;2023-04-01T01:20:57;99005.22;;;11.47;83.41
66945;BME280;53853;51.982;5.928;2023-04-01T01:23:58;99008.69;;;11.47;83.30
66945;BME280;53853;51.982;5.928;2023-04-01T01:26:52;99001.09;;;11.44;82.97
66945;BME280;53853;51.982;5.928;2023-04-01T01:35:28;99016.06;;;11.45;83.28
66945;BME280;53853;51.982;5.928;2023-04-01T01:38:03;99011.56;;;11.46;83.31
66945;BME280;53853;51.982;5.928;2023-04-01T01:40:36;99019.56;;;11.46;83.40
66945;BME280;53853;51.982;5.928;2023-04-01T01:43:09;99010.94;;;11.44;83.42
66945;BME280;53853;51.982;5.928;2023-04-01T01:45:44;99015.88;;;11.47;83.58
66945;BME280;53853;51.982;5.928;2023-04-01T01:48:17;99019.97;;;11.42;83.29
66945;BME280;53853;51.982;5.928;2023-04-01T01:50:50;99028.16;;;11.41;83.62
66945;BME280;53853;51.982;5.928;2023-04-01T01:53:21;99023.22;;;11.38;83.68
66945;BME280;53853;51.982;5.928;2023-04-01T01:55:51;99027.53;;;11.39;83.76
66945;BME280;53853;51.982;5.928;2023-04-01T01:58:25;99024.88;;;11.39;83.79
66945;BME280;53853;51.982;5.928;2023-04-01T02:01:00;99025.50;;;11.41;83.91
66945;BME280;53853;51.982;5.928;2023-04-01T02:03:33;99028.97;;;11.41;83.89
66945;BME280;53853;51.982;5.928;2023-04-01T02:06:09;99032.88;;;11.39;83.85
66945;BME280;53853;51.982;5.928;2023-04-01T02:08:42;99029.97;;;11.34;83.67
66945;BME280;53853;51.982;5.928;2023-04-01T02:11:16;99036.34;;;11.33;83.74
66945;BME280;53853;51.982;5.928;2023-04-01T02:13:53;99045.75;;;11.29;83.32
66945;BME280;53853;51.982;5.928;2023-04-01T02:16:27;99049.66;;;11.26;83.48
66945;BME280;53853;51.982;5.928;2023-04-01T02:19:00;99051.47;;;11.26;83.57
66945;BME280;53853;51.982;5.928;2023-04-01T02:21:37;99042.84;;;11.23;83.70
66945;BME280;53853;51.982;5.928;2023-04-01T02:24:12;99051.88;;;11.22;84.01
66945;BME280;53853;51.982;5.928;2023-04-01T02:26:43;99054.72;;;11.21;84.06
66945;BME280;53853;51.982;5.928;2023-04-01T02:29:14;99050.25;;;11.21;84.08
66945;BME280;53853;51.982;5.928;2023-04-01T02:31:46;99044.06;;;11.21;84.11
66945;BME280;53853;51.982;5.928;2023-04-01T02:34:16;99048.59;;;11.20;84.34
66945;BME280;53853;51.982;5.928;2023-04-01T02:36:50;99049.59;;;11.19;84.07
66945;BME280;53853;51.982;5.928;2023-04-01T02:39:20;99055.31;;;11.16;84.17
66945;BME280;53853;51.982;5.928;2023-04-01T02:41:52;99053.69;;;11.15;84.22
66945;BME280;53853;51.982;5.928;2023-04-01T02:44:22;99052.03;;;11.14;84.01
66945;BME280;53853;51.982;5.928;2023-04-01T02:46:52;99054.28;;;11.11;84.24
66945;BME280;53853;51.982;5.928;2023-04-01T02:49:22;99060.44;;;11.11;84.57
66945;BME280;53853;51.982;5.928;2023-04-01T02:51:54;99061.03;;;11.13;84.59
66945;BME280;53853;51.982;5.928;2023-04-01T02:54:24;99054.47;;;11.09;84.17
66945;BME280;53853;51.982;5.928;2023-04-01T02:56:54;99065.16;;;11.09;84.50
66945;BME280;53853;51.982;5.928;2023-04-01T02:59:24;99059.19;;;11.07;84.46
66945;BME280;53853;51.982;5.928;2023-04-01T03:01:54;99059.41;;;11.05;84.70
66945;BME280;53853;51.982;5.928;2023-04-01T03:04:24;99066.16;;;11.08;85.27
66945;BME280;53853;51.982;5.928;2023-04-01T03:06:56;99066.16;;;11.08;85.23
66945;BME280;53853;51.982;5.928;2023-04-01T03:09:26;99066.78;;;11.10;85.10
66945;BME280;53853;51.982;5.928;2023-04-01T03:11:57;99066.16;;;11.08;85.18
66945;BME280;53853;51.982;5.928;2023-04-01T03:14:27;99061.88;;;11.07;85.22
66945;BME280;53853;51.982;5.928;2023-04-01T03:16:57;99069.84;;;11.07;85.22
66945;BME280;53853;51.982;5.928;2023-04-01T03:19:27;99060.19;;;11.06;85.05
66945;BME280;53853;51.982;5.928;2023-04-01T03:22:00;99069.41;;;11.03;85.02
66945;BME280;53853;51.982;5.928;2023-04-01T03:24:30;99062.25;;;11.04;85.20
66945;BME280;53853;51.982;5.928;2023-04-01T03:27:00;99070.25;;;11.04;85.19
66945;BME280;53853;51.982;5.928;2023-04-01T03:29:30;99068.59;;;11.03;85.26
66945;BME280;53853;51.982;5.928;2023-04-01T03:32:00;99074.94;;;11.02;85.34
66945;BME280;53853;51.982;5.928;2023-04-01T03:34:30;99070.63;;;11.01;85.17
66945;BME280;53853;51.982;5.928;2023-04-01T03:37:03;99075.97;;;11.01;85.09
66945;BME280;53853;51.982;5.928;2023-04-01T03:39:33;99076.16;;;10.99;85.01
66945;BME280;53853;51.982;5.928;2023-04-01T03:42:03;99067.53;;;10.97;84.90
66945;BME280;53853;51.982;5.928;2023-04-01T03:44:34;99079.63;;;10.93;84.58
66945;BME280;53853;51.982;5.928;2023-04-01T03:47:04;99068.31;;;10.91;84.95
66945;BME280;53853;51.982;5.928;2023-04-01T03:49:36;99078.78;;;10.93;85.23
66945;BME280;53853;51.982;5.928;2023-04-01T03:52:09;99078.78;;;10.93;85.21
66945;BME280;53853;51.982;5.928;2023-04-01T03:54:40;99076.28;;;10.91;85.39
66945;BME280;53853;51.982;5.928;2023-04-01T03:57:10;99075.91;;;10.94;85.52
66945;BME280;53853;51.982;5.928;2023-04-01T03:59:40;99083.72;;;10.96;85.60
66945;BME280;53853;51.982;5.928;2023-04-01T04:02:10;99093.13;;;10.92;84.94
66945;BME280;53853;51.982;5.928;2023-04-01T04:04:40;99085.75;;;10.94;85.48
66945;BME280;53853;51.982;5.928;2023-04-01T04:07:13;99078.56;;;10.94;85.62
66945;BME280;53853;51.982;5.928;2023-04-01T04:10:03;99086.56;;;10.94;85.20
66945;BME280;53853;51.982;5.928;2023-04-01T04:12:33;99096.00;;;10.90;85.04
66945;BME280;53853;51.982;5.928;2023-04-01T04:15:04;99100.28;;;10.91;85.24
66945;BME280;53853;51.982;5.928;2023-04-01T04:17:34;99091.25;;;10.85;84.92
66945;BME280;53853;51.982;5.928;2023-04-01T04:20:05;99095.94;;;10.83;85.20
66945;BME280;53853;51.982;5.928;2023-04-01T04:22:38;99103.56;;;10.86;85.54
66945;BME280;53853;51.982;5.928;2023-04-01T04:25:09;99103.56;;;10.86;85.61
66945;BME280;53853;51.982;5.928;2023-04-01T04:27:39;99101.91;;;10.85;85.88
66945;BME280;53853;51.982;5.928;2023-04-01T04:30:13;99107.44;;;10.84;85.99
66945;BME280;53853;51.982;5.928;2023-04-01T04:32:43;99098.44;;;10.85;86.03
66945;BME280;53853;51.982;5.928;2023-04-01T04:35:13;99105.56;;;10.84;86.05
66945;BME280;53853;51.982;5.928;2023-04-01T04:37:46;99107.63;;;10.82;85.89
66945;BME280;53853;51.982;5.928;2023-04-01T04:40:18;99105.78;;;10.83;86.05
66945;BME280;53853;51.982;5.928;2023-04-01T04:42:48;99103.94;;;10.83;86.22
66945;BME280;53853;51.982;5.928;2023-04-01T04:45:17;99112.75;;;10.84;86.00
66945;BME280;53853;51.982;5.928;2023-04-01T04:47:54;99108.00;;;10.79;85.79
66945;BME280;53853;51.982;5.928;2023-04-01T04:50:24;99110.66;;;10.79;86.09
66945;BME280;53853;51.982;5.928;2023-04-01T04:52:57;99110.66;;;10.79;86.12
66945;BME280;53853;51.982;5.928;2023-04-01T04:55:27;99108.97;;;10.72;85.75
66945;BME280;53853;51.982;5.928;2023-04-01T04:58:30;99117.34;;;10.68;86.07
66945;BME280;53853;51.982;5.928;2023-04-01T05:01:07;99117.16;;;10.70;86.59
66945;BME280;53853;51.982;5.928;2023-04-01T05:03:38;99126.81;;;10.71;86.75
66945;BME280;53853;51.982;5.928;2023-04-01T05:06:09;99126.63;;;10.73;86.39
66945;BME280;53853;51.982;5.928;2023-04-01T05:08:44;99122.91;;;10.74;86.53
66945;BME280;53853;51.982;5.928;2023-04-01T05:11:16;99130.09;;;10.73;86.85
66945;BME280;53853;51.982;5.928;2023-04-01T05:13:47;99132.13;;;10.71;86.68
66945;BME280;53853;51.982;5.928;2023-04-01T05:16:19;99140.50;;;10.68;86.80
66945;BME280;53853;51.982;5.928;2023-04-01T05:18:49;99133.97;;;10.71;86.93
66945;BME280;53853;51.982;5.928;2023-04-01T05:21:19;99146.28;;;10.72;86.95
66945;BME280;53853;51.982;5.928;2023-04-01T05:23:52;99142.78;;;10.71;86.92
66945;BME280;53853;51.982;5.928;2023-04-01T05:26:23;99153.06;;;10.74;87.18
66945;BME280;53853;51.982;5.928;2023-04-01T05:28:53;99150.22;;;10.76;87.10
66945;BME280;53853;51.982;5.928;2023-04-01T05:31:23;99156.34;;;10.76;87.29
66945;BME280;53853;51.982;5.928;2023-04-01T05:33:53;99156.78;;;10.80;87.43
66945;BME280;53853;51.982;5.928;2023-04-01T05:36:23;99153.72;;;10.83;87.57
66945;BME280;53853;51.982;5.928;2023-04-01T05:38:58;99158.50;;;10.87;87.77
66945;BME280;53853;51.982;5.928;2023-04-01T05:41:28;99162.63;;;10.90;87.77
66945;BME280;53853;51.982;5.928;2023-04-01T05:43:58;99166.91;;;10.91;87.95
66945;BME280;53853;51.982;5.928;2023-04-01T05:46:51;99174.91;;;10.91;87.34
66945;BME280;53853;51.982;5.928;2023-04-01T05:49:23;99176.75;;;10.91;87.36
66945;BME280;53853;51.982;5.928;2023-04-01T05:51:53;99174.72;;;10.93;87.59
66945;BME280;53853;51.982;5.928;2023-04-01T05:54:26;99181.31;;;10.97;87.63
66945;BME280;53853;51.982;5.928;2023-04-01T05:56:55;99194.06;;;11.01;87.83
66945;BME280;53853;51.982;5.928;2023-04-01T05:59:26;99193.50;;;11.06;87.68
66945;BME280;53853;51.982;5.928;2023-04-01T06:01:58;99193.91;;;11.10;87.62
66945;BME280;53853;51.982;5.928;2023-04-01T06:04:34;99193.72;;;11.11;87.66
66945;BME280;53853;51.982;5.928;2023-04-01T06:07:12;99197.88;;;11.14;87.71
66945;BME280;53853;51.982;5.928;2023-04-01T06:09:45;99203.81;;;11.16;87.50
66945;BME280;53853;51.982;5.928;2023-04-01T06:18:24;99220.38;;;11.11;85.18
66945;BME280;53853;51.982;5.928;2023-04-01T06:21:04;99215.44;;;11.08;85.08
66945;BME280;53853;51.982;5.928;2023-04-01T06:23:57;99229.41;;;11.10;85.42
66945;BME280;53853;51.982;5.928;2023-04-01T06:26:39;99230.03;;;11.12;84.36
66945;BME280;53853;51.982;5.928;2023-04-01T06:32:31;99232.94;;;11.17;84.90
66945;BME280;53853;51.982;5.928;2023-04-01T06:35:17;99242.59;;;11.18;84.81
66945;BME280;53853;51.982;5.928;2023-04-01T06:38:17;99251.66;;;11.24;85.09
66945;BME280;53853;51.982;5.928;2023-04-01T06:41:13;99258.84;;;11.23;84.95
66945;BME280;53853;51.982;5.928;2023-04-01T06:43:57;99253.75;;;11.29;85.37
66945;BME280;53853;51.982;5.928;2023-04-01T06:47:19;99261.97;;;11.34;84.00
66945;BME280;53853;51.982;5.928;2023-04-01T06:50:15;99264.25;;;11.37;84.72
66945;BME280;53853;51.982;5.928;2023-04-01T06:53:12;99273.94;;;11.38;84.92
66945;BME280;53853;51.982;5.928;2023-04-01T06:56:23;99271.88;;;11.40;85.32
66945;BME280;53853;51.982;5.928;2023-04-01T06:59:04;99281.97;;;11.45;85.95
66945;BME280;53853;51.982;5.928;2023-04-01T07:01:37;99281.78;;;11.46;86.13
66945;BME280;53853;51.982;5.928;2023-04-01T07:04:13;99285.06;;;11.48;86.22
66945;BME280;53853;51.982;5.928;2023-04-01T07:06:47;99285.06;;;11.48;86.25
66945;BME280;53853;51.982;5.928;2023-04-01T07:09:22;99286.34;;;11.52;86.35
66945;BME280;53853;51.982;5.928;2023-04-01T07:12:33;99294.59;;;11.57;86.50
66945;BME280;53853;51.982;5.928;2023-04-01T07:15:33;99300.38;;;11.61;86.68
66945;BME280;53853;51.982;5.928;2023-04-01T07:18:13;99301.81;;;11.64;86.83
66945;BME280;53853;51.982;5.928;2023-04-01T07:20:46;99309.63;;;11.65;86.68
66945;BME280;53853;51.982;5.928;2023-04-01T07:23:23;99304.72;;;11.69;87.00
66945;BME280;53853;51.982;5.928;2023-04-01T07:26:11;99311.50;;;11.71;87.03
66945;BME280;53853;51.982;5.928;2023-04-01T07:29:08;99323.66;;;11.74;87.57
66945;BME280;53853;51.982;5.928;2023-04-01T07:32:15;99320.22;;;11.80;87.67
66945;BME280;53853;51.982;5.928;2023-04-01T07:34:55;99326.16;;;11.82;87.86
66945;BME280;53853;51.982;5.928;2023-04-01T07:37:33;99330.72;;;11.88;87.65
66945;BME280;53853;51.982;5.928;2023-04-01T07:40:18;99326.81;;;11.91;88.09
66945;BME280;53853;51.982;5.928;2023-04-01T07:43:07;99331.00;;;11.93;88.04
66945;BME280;53853;51.982;5.928;2023-04-01T07:45:53;99335.56;;;12.00;88.05
66945;BME280;53853;51.982;5.928;2023-04-01T07:48:33;99346.28;;;12.06;88.23
66945;BME280;53853;51.982;5.928;2023-04-01T07:51:12;99343.81;;;12.11;88.11
66945;BME280;53853;51.982;5.928;2023-04-01T07:53:48;99350.84;;;12.19;88.36
66945;BME280;53853;51.982;5.928;2023-04-01T07:56:25;99353.81;;;12.31;88.41
66945;BME280;53853;51.982;5.928;2023-04-01T07:59:07;99359.81;;;12.40;88.57
66945;BME280;53853;51.982;5.928;2023-04-01T08:02:03;99373.00;;;12.48;88.85
66945;BME280;53853;51.982;5.928;2023-04-01T08:04:50;99367.25;;;12.51;88.85
66945;BME280;53853;51.982;5.928;2023-04-01T08:07:25;99369.72;;;12.53;88.90
66945;BME280;53853;51.982;5.928;2023-04-01T08:10:32;99376.13;;;12.58;88.50
66945;BME280;53853;51.982;5.928;2023-04-01T08:13:31;99371.63;;;12.65;88.53
66945;BME280;53853;51.982;5.928;2023-04-01T08:16:39;99386.25;;;12.69;87.52
66945;BME280;53853;51.982;5.928;2023-04-01T08:19:25;99393.06;;;12.72;87.26
66945;BME280;53853;51.982;5.928;2023-04-01T08:22:09;99391.41;;;12.78;87.36
66945;BME280;53853;51.982;5.928;2023-04-01T08:24:42;99398.22;;;12.80;87.41
66945;BME280;53853;51.982;5.928;2023-04-01T08:27:18;99398.84;;;12.82;87.42
66945;BME280;53853;51.982;5.928;2023-04-01T08:29:55;99403.16;;;12.83;87.35
66945;BME280;53853;51.982;5.928;2023-04-01T08:32:32;99408.72;;;12.82;86.89
66945;BME280;53853;51.982;5.928;2023-04-01T08:35:09;99407.47;;;12.78;86.80
66945;BME280;53853;51.982;5.928;2023-04-01T08:37:49;99402.94;;;12.78;87.39
66945;BME280;53853;51.982;5.928;2023-04-01T08:40:51;99415.06;;;12.81;87.38
66945;BME280;53853;51.982;5.928;2023-04-01T08:46:40;99419.81;;;12.79;86.23
66945;BME280;53853;51.982;5.928;2023-04-01T08:49:29;99428.63;;;12.79;86.74
66945;BME280;53853;51.982;5.928;2023-04-01T08:52:29;99427.59;;;12.74;85.03
66945;BME280;53853;51.982;5.928;2023-04-01T08:55:25;99430.22;;;12.67;85.61
66945;BME280;53853;51.982;5.928;2023-04-01T08:58:35;99441.09;;;12.59;84.87
66945;BME280;53853;51.982;5.928;2023-04-01T09:01:45;99440.66;;;12.55;85.45
66945;BME280;53853;51.982;5.928;2023-04-01T09:05:06;99448.28;;;12.58;85.87
66945;BME280;53853;51.982;5.928;2023-04-01T09:07:48;99450.56;;;12.61;86.16
66945;BME280;53853;51.982;5.928;2023-04-01T09:14:36;99463.72;;;12.63;85.29
66945;BME280;53853;51.982;5.928;2023-04-01T09:20:30;99462.75;;;12.71;85.08
66945;BME280;53853;51.982;5.928;2023-04-01T09:23:20;99467.91;;;12.72;85.06
66945;BME280;53853;51.982;5.928;2023-04-01T09:26:07;99478.13;;;12.68;83.36
66945;BME280;53853;51.982;5.928;2023-04-01T09:28:46;99478.97;;;12.69;84.20
66945;BME280;53853;51.982;5.928;2023-04-01T09:31:32;99479.56;;;12.64;83.29
66945;BME280;53853;51.982;5.928;2023-04-01T09:34:36;99481.84;;;12.67;84.18
66945;BME280;53853;51.982;5.928;2023-04-01T09:37:19;99492.16;;;12.71;84.59
66945;BME280;53853;51.982;5.928;2023-04-01T09:40:15;99483.75;;;12.74;84.84
66945;BME280;53853;51.982;5.928;2023-04-01T09:43:16;99498.34;;;12.78;84.37
66945;BME280;53853;51.982;5.928;2023-04-01T09:46:08;99501.22;;;12.76;83.82
66945;BME280;53853;51.982;5.928;2023-04-01T09:48:56;99500.38;;;12.69;83.46
66945;BME280;53853;51.982;5.928;2023-04-01T09:51:39;99518.44;;;12.67;84.34
66945;BME280;53853;51.982;5.928;2023-04-01T09:54:22;99511.00;;;12.62;84.70
66945;BME280;53853;51.982;5.928;2023-04-01T09:57:22;99516.88;;;12.51;84.00
66945;BME280;53853;51.982;5.928;2023-04-01T10:03:54;99525.22;;;12.35;84.61
66945;BME280;53853;51.982;5.928;2023-04-01T10:07:01;99536.41;;;12.23;85.22
66945;BME280;53853;51.982;5.928;2023-04-01T10:12:57;99541.56;;;12.25;86.31
66945;BME280;53853;51.982;5.928;2023-04-01T10:15:51;99541.75;;;12.23;86.45
66945;BME280;53853;51.982;5.928;2023-04-01T10:22:07;99550.59;;;12.24;86.28
66945;BME280;53853;51.982;5.928;2023-04-01T10:25:11;99554.94;;;12.25;86.93
66945;BME280;53853;51.982;5.928;2023-04-01T10:28:15;99554.72;;;12.26;87.42
66945;BME280;53853;51.982;5.928;2023-04-01T10:31:45;99554.78;;;12.33;87.33
66945;BME280;53853;51.982;5.928;2023-04-01T10:41:09;99564.31;;;12.42;87.15
66945;BME280;53853;51.982;5.928;2023-04-01T10:57:35;99573.75;;;13.01;85.88
66945;BME280;53853;51.982;5.928;2023-04-01T11:07:39;99576.78;;;12.92;86.10
66945;BME280;53853;51.982;5.928;2023-04-01T11:13:46;99578.88;;;12.96;86.42
66945;BME280;53853;51.982;5.928;2023-04-01T11:22:58;99588.66;;;13.17;86.23
66945;BME280;53853;51.982;5.928;2023-04-01T11:32:17;99607.03;;;12.92;83.79
66945;BME280;53853;51.982;5.928;2023-04-01T11:35:02;99606.75;;;12.80;84.06
66945;BME280;53853;51.982;5.928;2023-04-01T11:37:42;99604.41;;;12.71;84.11
66945;BME280;53853;51.982;5.928;2023-04-01T11:40:54;99609.66;;;12.57;84.01
66945;BME280;53853;51.982;5.928;2023-04-01T11:44:16;99611.66;;;12.48;84.68
66945;BME280;53853;51.982;5.928;2023-04-01T11:47:13;99611.19;;;12.45;85.55
66945;BME280;53853;51.982;5.928;2023-04-01T11:49:53;99613.22;;;12.43;85.88
66945;BME280;53853;51.982;5.928;2023-04-01T11:53:04;99616.84;;;12.35;85.78
66945;BME280;53853;51.982;5.928;2023-04-01T11:55:50;99625.44;;;12.30;86.33
66945;BME280;53853;51.982;5.928;2023-04-01T12:01:47;99638.50;;;12.19;87.27
66945;BME280;53853;51.982;5.928;2023-04-01T12:04:45;99647.88;;;12.14;87.50
66945;BME280;53853;51.982;5.928;2023-04-01T12:07:34;99642.47;;;12.08;87.74
66945;BME280;53853;51.982;5.928;2023-04-01T12:10:17;99648.94;;;11.99;87.94
66945;BME280;53853;51.982;5.928;2023-04-01T12:12:54;99660.84;;;11.96;88.11
66945;BME280;53853;51.982;5.928;2023-04-01T12:15:34;99656.88;;;11.92;88.33
66945;BME280;53853;51.982;5.928;2023-04-01T12:18:17;99661.94;;;11.87;88.71
66945;BME280;53853;51.982;5.928;2023-04-01T12:20:53;99674.66;;;11.85;88.97
66945;BME280;53853;51.982;5.928;2023-04-01T12:23:41;99666.84;;;11.83;89.00
66945;BME280;53853;51.982;5.928;2023-04-01T12:29:25;99672.16;;;11.83;89.37
66945;BME280;53853;51.982;5.928;2023-04-01T12:32:14;99682.84;;;11.83;89.69
66945;BME280;53853;51.982;5.928;2023-04-01T12:35:02;99682.00;;;11.83;89.83
66945;BME280;53853;51.982;5.928;2023-04-01T12:37:45;99700.13;;;11.87;90.19
66945;BME280;53853;51.982;5.928;2023-04-01T12:40:48;99697.09;;;11.90;90.37
66945;BME280;53853;51.982;5.928;2023-04-01T12:46:20;99707.31;;;12.02;90.98
66945;BME280;53853;51.982;5.928;2023-04-01T12:52:12;99721.66;;;12.16;91.36
66945;BME280;53853;51.982;5.928;2023-04-01T12:55:14;99726.06;;;12.23;91.44
66945;BME280;53853;51.982;5.928;2023-04-01T12:58:12;99726.13;;;12.30;91.27
66945;BME280;53853;51.982;5.928;2023-04-01T13:00:55;99724.94;;;12.32;91.42
66945;BME280;53853;51.982;5.928;2023-04-01T13:03:48;99733.22;;;12.38;91.27
66945;BME280;53853;51.982;5.928;2023-04-01T13:06:35;99728.69;;;12.38;90.97
66945;BME280;53853;51.982;5.928;2023-04-01T13:09:19;99742.50;;;12.42;90.57
66945;BME280;53853;51.982;5.928;2023-04-01T13:12:03;99746.00;;;12.42;90.58
66945;BME280;53853;51.982;5.928;2023-04-01T13:14:54;99748.38;;;12.52;90.78
66945;BME280;53853;51.982;5.928;2023-04-01T13:17:36;99752.72;;;12.53;89.35
66945;BME280;53853;51.982;5.928;2023-04-01T13:20:16;99748.63;;;12.57;89.90
66945;BME280;53853;51.982;5.928;2023-04-01T13:23:01;99759.84;;;12.67;90.64
66945;BME280;53853;51.982;5.928;2023-04-01T13:25:46;99764.44;;;12.74;90.50
66945;BME280;53853;51.982;5.928;2023-04-01T13:28:24;99763.63;;;12.80;90.51
66945;BME280;53853;51.982;5.928;2023-04-01T13:30:59;99767.59;;;12.84;90.24
66945;BME280;53853;51.982;5.928;2023-04-01T13:33:36;99777.34;;;12.92;90.53
66945;BME280;53853;51.982;5.928;2023-04-01T13:36:20;99780.47;;;12.95;90.52
66945;BME280;53853;51.982;5.928;2023-04-01T13:39:19;99782.69;;;12.92;90.04
66945;BME280;53853;51.982;5.928;2023-04-01T13:42:11;99785.56;;;12.90;90.14
66945;BME280;53853;51.982;5.928;2023-04-01T13:44:46;99793.72;;;12.82;89.66
66945;BME280;53853;51.982;5.928;2023-04-01T13:47:38;99807.78;;;12.69;88.63
66945;BME280;53853;51.982;5.928;2023-04-01T13:50:30;99802.25;;;12.56;87.87
66945;BME280;53853;51.982;5.928;2023-04-01T13:53:29;99809.94;;;12.44;88.34
66945;BME280;53853;51.982;5.928;2023-04-01T13:56:21;99820.38;;;12.39;88.44
66945;BME280;53853;51.982;5.928;2023-04-01T13:59:15;99813.75;;;12.35;88.83
66945;BME280;53853;51.982;5.928;2023-04-01T14:01:58;99815.59;;;12.34;88.90
66945;BME280;53853;51.982;5.928;2023-04-01T14:04:47;99823.59;;;12.34;89.15
66945;BME280;53853;51.982;5.928;2023-04-01T14:07:32;99824.06;;;12.38;89.44
66945;BME280;53853;51.982;5.928;2023-04-01T14:10:24;99837.03;;;12.41;89.78
66945;BME280;53853;51.982;5.928;2023-04-01T14:12:59;99837.66;;;12.43;90.14
66945;BME280;53853;51.982;5.928;2023-04-01T14:15:47;99842.00;;;12.44;90.44
66945;BME280;53853;51.982;5.928;2023-04-01T14:18:42;99830.28;;;12.45;90.74
66945;BME280;53853;51.982;5.928;2023-04-01T14:21:21;99843.94;;;12.50;90.39
66945;BME280;53853;51.982;5.928;2023-04-01T14:24:18;99847.69;;;12.56;90.62
66945;BME280;53853;51.982;5.928;2023-04-01T14:27:09;99851.84;;;12.58;90.83
66945;BME280;53853;51.982;5.928;2023-04-01T14:29:57;99856.19;;;12.59;90.50
66945;BME280;53853;51.982;5.928;2023-04-01T14:32:42;99863.81;;;12.62;90.78
66945;BME280;53853;51.982;5.928;2023-04-01T14:35:19;99866.28;;;12.64;90.84
66945;BME280;53853;51.982;5.928;2023-04-01T14:38:04;99872.84;;;12.61;90.96
66945;BME280;53853;51.982;5.928;2023-04-01T14:40:55;99861.13;;;12.62;91.34
66945;BME280;53853;51.982;5.928;2023-04-01T14:43:55;99876.78;;;12.65;91.37
66945;BME280;53853;51.982;5.928;2023-04-01T14:46:52;99877.28;;;12.69;91.68
66945;BME280;53853;51.982;5.928;2023-04-01T14:49:36;99883.63;;;12.68;91.13
66945;BME280;53853;51.982;5.928;2023-04-01T14:52:13;99886.03;;;12.63;90.38
66945;BME280;53853;51.982;5.928;2023-04-01T14:54:47;99883.53;;;12.61;89.53
66945;BME280;53853;51.982;5.928;2023-04-01T14:57:24;99892.75;;;12.59;89.53
66945;BME280;53853;51.982;5.928;2023-04-01T14:59:59;99888.81;;;12.55;88.87
66945;BME280;53853;51.982;5.928;2023-04-01T15:02:50;99904.00;;;12.54;89.37
66945;BME280;53853;51.982;5.928;2023-04-01T15:05:37;99899.69;;;12.53;89.54
66945;BME280;53853;51.982;5.928;2023-04-01T15:08:14;99905.22;;;12.52;88.98
66945;BME280;53853;51.982;5.928;2023-04-01T15:11:07;99901.34;;;12.54;89.80
66945;BME280;53853;51.982;5.928;2023-04-01T15:14:01;99910.00;;;12.56;89.84
66945;BME280;53853;51.982;5.928;2023-04-01T15:16:41;99915.34;;;12.56;89.52
66945;BME280;53853;51.982;5.928;2023-04-01T15:19:23;99924.19;;;12.57;89.04
66945;BME280;53853;51.982;5.928;2023-04-01T15:22:25;99927.94;;;12.62;89.26
66945;BME280;53853;51.982;5.928;2023-04-01T15:25:14;99933.41;;;12.69;89.67
66945;BME280;53853;51.982;5.928;2023-04-01T15:27:53;99937.34;;;12.73;89.69
66945;BME280;53853;51.982;5.928;2023-04-01T15:30:37;99941.63;;;12.67;88.92
66945;BME280;53853;51.982;5.928;2023-04-01T15:33:43;99950.38;;;12.61;87.86
66945;BME280;53853;51.982;5.928;2023-04-01T15:36:28;99953.50;;;12.50;87.74
66945;BME280;53853;51.982;5.928;2023-04-01T15:39:11;99964.94;;;12.44;88.16
66945;BME280;53853;51.982;5.928;2023-04-01T15:42:04;99970.00;;;12.39;88.28
66945;BME280;53853;51.982;5.928;2023-04-01T15:47:42;99971.91;;;12.30;88.43
66945;BME280;53853;51.982;5.928;2023-04-01T15:53:37;99991.88;;;12.19;88.46